sensor_id;sensor_type;location;lat;lon;timestamp;pressure;altitude;pressure_sealevel;temperature;humidity
13124;BME280;6627;50.920;12.050;2024-01-30T00:01:30;99235.75;;;11.89;38.41
13124;BME280;6627;50.920;12.050;2024-01-30T00:04:09;99316.72;;;12.33;38.21
13124;BME280;6627;50.920;12.050;2024-01-30T00:06:39;99301.75;;;12.36;37.77
13124;BME280;6627;50.920;12.050;2024-01-30T00:09:06;99378.44;;;12.79;37.80
13124;BME280;6627;50.920;12.050;2024-01-30T00:11:50;99316.78;;;12.61;37.40
13124;BME280;6627;50.920;12.050;2024-01-30T00:14:19;99315.75;;;12.57;37.77
13124;BME280;6627;50.920;12.050;2024-01-30T00:16:49;99310.03;;;12.45;37.95
13124;BME280;6627;50.920;12.050;2024-01-30T00:19:33;99302.81;;;12.54;37.65
13124;BME280;6627;50.920;12.050;2024-01-30T00:22:18;99360.91;;;12.85;37.33
13124;BME280;6627;50.920;12.050;2024-01-30T00:24:45;99356.16;;;12.77;37.54
13124;BME280;6627;50.920;12.050;2024-01-30T00:27:14;99254.38;;;11.96;38.57
13124;BME280;6627;50.920;12.050;2024-01-30T00:29:42;99236.19;;;11.77;38.75
13124;BME280;6627;50.920;12.050;2024-01-30T00:32:11;99333.13;;;12.28;38.60
13124;BME280;6627;50.920;12.050;2024-01-30T00:34:41;99343.25;;;12.55;38.05
13124;BME280;6627;50.920;12.050;2024-01-30T00:37:12;99239.41;;;11.98;38.52
13124;BME280;6627;50.920;12.050;2024-01-30T00:39:40;99245.94;;;11.97;38.60
13124;BME280;6627;50.920;12.050;2024-01-30T00:42:15;99330.75;;;12.41;38.38
13124;BME280;6627;50.920;12.050;2024-01-30T00:45:00;99212.06;;;11.76;38.43
13124;BME280;6627;50.920;12.050;2024-01-30T00:47:44;99254.22;;;12.06;38.04
13124;BME280;6627;50.920;12.050;2024-01-30T00:50:11;99236.75;;;11.60;39.36
13124;BME280;6627;50.920;12.050;2024-01-30T00:52:52;99279.63;;;11.96;38.93
13124;BME280;6627;50.920;12.050;2024-01-30T00:55:40;99292.03;;;12.16;38.51
13124;BME280;6627;50.920;12.050;2024-01-30T00:58:08;99317.66;;;12.43;38.15
13124;BME280;6627;50.920;12.050;2024-01-30T01:00:36;99248.56;;;12.02;38.43
13124;BME280;6627;50.920;12.050;2024-01-30T01:03:13;99220.06;;;11.67;38.67
13124;BME280;6627;50.920;12.050;2024-01-30T01:05:48;99303.91;;;12.20;38.87
13124;BME280;6627;50.920;12.050;2024-01-30T01:08:35;99214.53;;;11.40;39.82
13124;BME280;6627;50.920;12.050;2024-01-30T01:11:03;99237.69;;;11.13;41.12
13124;BME280;6627;50.920;12.050;2024-01-30T01:13:50;99242.47;;;11.02;41.42
13124;BME280;6627;50.920;12.050;2024-01-30T01:16:19;99347.25;;;11.93;40.27
13124;BME280;6627;50.920;12.050;2024-01-30T01:18:47;99333.44;;;12.08;39.28
13124;BME280;6627;50.920;12.050;2024-01-30T01:21:16;99405.44;;;12.57;38.62
13124;BME280;6627;50.920;12.050;2024-01-30T01:23:44;99160.59;;;11.19;40.04
13124;BME280;6627;50.920;12.050;2024-01-30T01:26:31;99408.06;;;12.29;39.59
13124;BME280;6627;50.920;12.050;2024-01-30T01:28:58;99238.56;;;11.65;39.33
13124;BME280;6627;50.920;12.050;2024-01-30T01:31:28;99310.94;;;11.89;39.38
13124;BME280;6627;50.920;12.050;2024-01-30T01:33:57;99337.97;;;12.31;38.91
13124;BME280;6627;50.920;12.050;2024-01-30T01:36:26;99289.88;;;11.80;39.67
13124;BME280;6627;50.920;12.050;2024-01-30T01:39:05;99348.03;;;12.12;39.47
13124;BME280;6627;50.920;12.050;2024-01-30T01:41:44;99213.34;;;11.46;39.46
13124;BME280;6627;50.920;12.050;2024-01-30T01:44:24;99299.34;;;12.02;38.96
13124;BME280;6627;50.920;12.050;2024-01-30T01:47:07;99345.31;;;12.12;39.37
13124;BME280;6627;50.920;12.050;2024-01-30T01:49:55;99321.91;;;12.49;38.21
13124;BME280;6627;50.920;12.050;2024-01-30T01:52:23;99283.63;;;12.31;37.98
13124;BME280;6627;50.920;12.050;2024-01-30T01:54:53;99270.38;;;11.78;39.42
13124;BME280;6627;50.920;12.050;2024-01-30T01:57:21;99273.25;;;11.49;40.38
13124;BME280;6627;50.920;12.050;2024-01-30T01:59:50;99375.47;;;12.29;39.38
13124;BME280;6627;50.920;12.050;2024-01-30T02:02:24;99285.94;;;11.92;39.27
13124;BME280;6627;50.920;12.050;2024-01-30T02:04:57;99333.13;;;12.28;38.83
13124;BME280;6627;50.920;12.050;2024-01-30T02:07:27;99343.03;;;12.52;38.63
13124;BME280;6627;50.920;12.050;2024-01-30T02:09:55;99358.94;;;12.45;38.58
13124;BME280;6627;50.920;12.050;2024-01-30T02:12:23;99297.22;;;11.99;39.51
13124;BME280;6627;50.920;12.050;2024-01-30T02:14:51;99281.44;;;11.63;39.96
13124;BME280;6627;50.920;12.050;2024-01-30T02:17:20;99367.75;;;12.36;38.99
13124;BME280;6627;50.920;12.050;2024-01-30T02:20:03;99368.25;;;12.38;39.23
13124;BME280;6627;50.920;12.050;2024-01-30T02:22:48;99335.47;;;12.16;39.21
13124;BME280;6627;50.920;12.050;2024-01-30T02:25:16;99197.19;;;11.22;40.28
13124;BME280;6627;50.920;12.050;2024-01-30T02:27:47;99340.88;;;12.02;39.94
13124;BME280;6627;50.920;12.050;2024-01-30T02:30:15;99322.75;;;11.98;39.54
13124;BME280;6627;50.920;12.050;2024-01-30T02:32:56;99304.31;;;11.95;39.60
13124;BME280;6627;50.920;12.050;2024-01-30T02:35:34;99303.38;;;11.85;39.83
13124;BME280;6627;50.920;12.050;2024-01-30T02:38:20;99278.47;;;11.83;39.66
13124;BME280;6627;50.920;12.050;2024-01-30T02:41:02;99375.38;;;12.34;39.42
13124;BME280;6627;50.920;12.050;2024-01-30T02:43:48;99342.03;;;12.15;39.32
13124;BME280;6627;50.920;12.050;2024-01-30T02:46:16;99217.63;;;11.52;39.26
13124;BME280;6627;50.920;12.050;2024-01-30T02:48:43;99188.16;;;11.26;39.59
13124;BME280;6627;50.920;12.050;2024-01-30T02:51:17;99274.72;;;11.60;40.28
13124;BME280;6627;50.920;12.050;2024-01-30T02:54:01;99372.00;;;12.43;38.99
13124;BME280;6627;50.920;12.050;2024-01-30T02:56:41;99263.19;;;11.50;40.19
13124;BME280;6627;50.920;12.050;2024-01-30T02:59:29;99315.56;;;11.88;40.04
13124;BME280;6627;50.920;12.050;2024-01-30T03:02:00;99184.50;;;11.17;39.95
13124;BME280;6627;50.920;12.050;2024-01-30T03:04:30;99276.56;;;11.65;40.20
13124;BME280;6627;50.920;12.050;2024-01-30T03:06:58;99205.69;;;11.34;39.93
13124;BME280;6627;50.920;12.050;2024-01-30T03:09:46;99339.47;;;12.05;39.77
13124;BME280;6627;50.920;12.050;2024-01-30T03:12:33;99246.25;;;11.58;39.94
13124;BME280;6627;50.920;12.050;2024-01-30T03:15:09;99231.25;;;11.47;39.87
13124;BME280;6627;50.920;12.050;2024-01-30T03:17:43;99234.69;;;11.15;41.11
13124;BME280;6627;50.920;12.050;2024-01-30T03:20:13;99269.44;;;11.50;40.45
13124;BME280;6627;50.920;12.050;2024-01-30T03:22:40;99217.19;;;11.07;41.23
13124;BME280;6627;50.920;12.050;2024-01-30T03:25:10;99280.50;;;11.54;40.54
13124;BME280;6627;50.920;12.050;2024-01-30T03:27:37;99190.56;;;11.09;40.52
13124;BME280;6627;50.920;12.050;2024-01-30T03:30:20;99284.69;;;11.65;40.26
13124;BME280;6627;50.920;12.050;2024-01-30T03:32:51;99180.97;;;10.98;40.53
13124;BME280;6627;50.920;12.050;2024-01-30T03:35:29;99309.66;;;11.81;40.02
13124;BME280;6627;50.920;12.050;2024-01-30T03:38:02;99297.06;;;11.71;40.24
13124;BME280;6627;50.920;12.050;2024-01-30T03:40:32;99221.13;;;10.96;41.12
13124;BME280;6627;50.920;12.050;2024-01-30T03:43:10;99274.06;;;11.31;40.65
13124;BME280;6627;50.920;12.050;2024-01-30T03:45:38;99257.56;;;11.27;40.63
13124;BME280;6627;50.920;12.050;2024-01-30T03:48:25;99325.22;;;11.75;40.22
13124;BME280;6627;50.920;12.050;2024-01-30T03:51:09;99273.66;;;11.19;41.43
13124;BME280;6627;50.920;12.050;2024-01-30T03:53:53;99269.50;;;11.26;41.11
13124;BME280;6627;50.920;12.050;2024-01-30T03:56:24;99276.03;;;11.25;41.06
13124;BME280;6627;50.920;12.050;2024-01-30T03:58:52;99269.34;;;11.18;41.28
13124;BME280;6627;50.920;12.050;2024-01-30T04:01:29;99185.34;;;10.75;41.40
13124;BME280;6627;50.920;12.050;2024-01-30T04:04:09;99382.69;;;12.01;40.20
13124;BME280;6627;50.920;12.050;2024-01-30T04:06:55;99295.78;;;11.69;40.00
13124;BME280;6627;50.920;12.050;2024-01-30T04:09:35;99356.69;;;11.95;39.99
13124;BME280;6627;50.920;12.050;2024-01-30T04:12:07;99326.25;;;11.79;39.86
13124;BME280;6627;50.920;12.050;2024-01-30T04:14:35;99242.03;;;11.52;39.79
13124;BME280;6627;50.920;12.050;2024-01-30T04:17:16;99102.38;;;10.60;40.38
13124;BME280;6627;50.920;12.050;2024-01-30T04:20:04;99287.81;;;11.72;39.26
13124;BME280;6627;50.920;12.050;2024-01-30T04:22:32;99306.00;;;11.91;39.41
13124;BME280;6627;50.920;12.050;2024-01-30T04:25:18;99223.16;;;11.42;39.49
13124;BME280;6627;50.920;12.050;2024-01-30T04:28:01;99166.47;;;10.89;40.55
13124;BME280;6627;50.920;12.050;2024-01-30T04:30:31;99279.13;;;11.56;40.04
13124;BME280;6627;50.920;12.050;2024-01-30T04:33:11;99089.59;;;10.23;41.31
13124;BME280;6627;50.920;12.050;2024-01-30T04:35:58;99303.31;;;11.53;40.41
13124;BME280;6627;50.920;12.050;2024-01-30T04:38:26;99285.34;;;11.57;40.06
13124;BME280;6627;50.920;12.050;2024-01-30T04:40:55;99157.25;;;10.90;40.02
13124;BME280;6627;50.920;12.050;2024-01-30T04:43:43;99187.06;;;10.47;41.74
13124;BME280;6627;50.920;12.050;2024-01-30T04:46:20;99227.91;;;10.93;40.94
13124;BME280;6627;50.920;12.050;2024-01-30T04:48:50;99240.09;;;11.15;40.16
13124;BME280;6627;50.920;12.050;2024-01-30T04:51:28;99370.84;;;12.30;38.46
13124;BME280;6627;50.920;12.050;2024-01-30T04:54:00;99243.25;;;11.41;39.42
13124;BME280;6627;50.920;12.050;2024-01-30T04:56:28;99198.06;;;11.17;39.66
13124;BME280;6627;50.920;12.050;2024-01-30T04:58:56;99057.13;;;9.99;41.23
13124;BME280;6627;50.920;12.050;2024-01-30T05:01:40;99197.94;;;10.84;40.57
13124;BME280;6627;50.920;12.050;2024-01-30T05:04:09;99134.47;;;10.29;41.43
13124;BME280;6627;50.920;12.050;2024-01-30T05:06:38;99133.22;;;9.92;42.67
13124;BME280;6627;50.920;12.050;2024-01-30T05:09:09;99239.66;;;10.41;42.46
13124;BME280;6627;50.920;12.050;2024-01-30T05:11:37;99102.56;;;9.73;42.35
13124;BME280;6627;50.920;12.050;2024-01-30T05:14:21;99296.50;;;10.94;41.64
13124;BME280;6627;50.920;12.050;2024-01-30T05:16:51;99209.75;;;10.51;41.88
13124;BME280;6627;50.920;12.050;2024-01-30T05:19:38;99228.66;;;10.56;41.71
13124;BME280;6627;50.920;12.050;2024-01-30T05:22:21;99364.34;;;11.31;41.28
13124;BME280;6627;50.920;12.050;2024-01-30T05:25:04;99318.44;;;11.16;41.00
13124;BME280;6627;50.920;12.050;2024-01-30T05:27:36;99322.06;;;11.30;40.70
13124;BME280;6627;50.920;12.050;2024-01-30T05:30:24;99274.19;;;11.21;40.06
13124;BME280;6627;50.920;12.050;2024-01-30T05:32:52;99176.56;;;10.64;40.48
13124;BME280;6627;50.920;12.050;2024-01-30T05:35:21;99319.91;;;11.27;40.62
13124;BME280;6627;50.920;12.050;2024-01-30T05:37:49;99234.53;;;11.06;40.19
13124;BME280;6627;50.920;12.050;2024-01-30T05:40:27;99177.44;;;10.78;40.26
13124;BME280;6627;50.920;12.050;2024-01-30T05:43:10;99303.06;;;11.30;40.51
13124;BME280;6627;50.920;12.050;2024-01-30T05:45:41;99170.56;;;10.67;40.51
13124;BME280;6627;50.920;12.050;2024-01-30T05:48:19;99137.16;;;10.05;41.76
13124;BME280;6627;50.920;12.050;2024-01-30T05:51:07;99187.47;;;10.59;40.46
13124;BME280;6627;50.920;12.050;2024-01-30T05:53:44;99202.06;;;11.01;39.80
13124;BME280;6627;50.920;12.050;2024-01-30T05:56:14;99257.03;;;11.63;38.78
13124;BME280;6627;50.920;12.050;2024-01-30T05:58:43;99197.03;;;11.13;39.30
13124;BME280;6627;50.920;12.050;2024-01-30T06:01:25;99184.03;;;10.72;40.33
13124;BME280;6627;50.920;12.050;2024-01-30T06:03:56;99156.50;;;10.65;40.04
13124;BME280;6627;50.920;12.050;2024-01-30T06:06:24;99297.22;;;11.61;39.15
13124;BME280;6627;50.920;12.050;2024-01-30T06:09:03;99244.00;;;11.65;38.48
13124;BME280;6627;50.920;12.050;2024-01-30T06:11:49;99329.38;;;11.92;38.69
13124;BME280;6627;50.920;12.050;2024-01-30T06:14:30;99179.84;;;10.80;40.04
13124;BME280;6627;50.920;12.050;2024-01-30T06:17:19;99148.91;;;10.67;39.65
13124;BME280;6627;50.920;12.050;2024-01-30T06:19:50;99268.94;;;11.29;39.66
13124;BME280;6627;50.920;12.050;2024-01-30T06:22:24;99266.97;;;11.11;40.27
13124;BME280;6627;50.920;12.050;2024-01-30T06:25:09;99315.47;;;11.74;39.21
13124;BME280;6627;50.920;12.050;2024-01-30T06:27:57;99385.91;;;12.22;38.87
13124;BME280;6627;50.920;12.050;2024-01-30T06:30:33;99202.44;;;11.13;39.50
13124;BME280;6627;50.920;12.050;2024-01-30T06:33:03;99226.56;;;11.33;39.10
13124;BME280;6627;50.920;12.050;2024-01-30T06:35:31;99301.31;;;11.77;38.99
13124;BME280;6627;50.920;12.050;2024-01-30T06:37:59;99277.91;;;11.81;38.57
13124;BME280;6627;50.920;12.050;2024-01-30T06:40:30;99281.59;;;11.72;39.04
13124;BME280;6627;50.920;12.050;2024-01-30T06:43:00;99145.97;;;11.20;38.59
13124;BME280;6627;50.920;12.050;2024-01-30T06:45:46;99243.19;;;11.46;39.09
13124;BME280;6627;50.920;12.050;2024-01-30T06:48:34;99258.59;;;11.69;38.37
13124;BME280;6627;50.920;12.050;2024-01-30T06:51:15;99264.53;;;11.33;39.51
13124;BME280;6627;50.920;12.050;2024-01-30T06:53:45;99361.63;;;12.12;38.82
13124;BME280;6627;50.920;12.050;2024-01-30T06:56:12;99247.53;;;11.47;38.95
13124;BME280;6627;50.920;12.050;2024-01-30T06:58:59;99331.25;;;12.10;38.50
13124;BME280;6627;50.920;12.050;2024-01-30T07:01:46;99156.56;;;10.98;39.13
13124;BME280;6627;50.920;12.050;2024-01-30T07:04:24;99200.47;;;11.00;40.08
13124;BME280;6627;50.920;12.050;2024-01-30T07:06:53;99201.81;;;11.21;39.21
13124;BME280;6627;50.920;12.050;2024-01-30T07:09:20;99360.81;;;12.11;38.77
13124;BME280;6627;50.920;12.050;2024-01-30T07:11:49;99348.81;;;12.31;37.77
13124;BME280;6627;50.920;12.050;2024-01-30T07:14:16;99300.84;;;12.08;37.91
13124;BME280;6627;50.920;12.050;2024-01-30T07:16:44;99345.19;;;12.22;37.82
13124;BME280;6627;50.920;12.050;2024-01-30T07:19:11;99290.44;;;11.77;38.69
13124;BME280;6627;50.920;12.050;2024-01-30T07:21:40;99288.84;;;11.76;38.92
13124;BME280;6627;50.920;12.050;2024-01-30T07:24:07;99368.16;;;12.44;37.93
13124;BME280;6627;50.920;12.050;2024-01-30T07:26:35;99268.03;;;11.91;38.35
13124;BME280;6627;50.920;12.050;2024-01-30T07:29:05;99290.44;;;11.77;38.72
13124;BME280;6627;50.920;12.050;2024-01-30T07:31:34;99260.03;;;11.80;38.58
13124;BME280;6627;50.920;12.050;2024-01-30T07:34:07;99321.19;;;12.10;38.54
13124;BME280;6627;50.920;12.050;2024-01-30T07:36:34;99284.13;;;11.87;38.36
13124;BME280;6627;50.920;12.050;2024-01-30T07:39:03;99309.84;;;11.90;38.75
13124;BME280;6627;50.920;12.050;2024-01-30T07:41:34;99393.31;;;12.35;38.74
13124;BME280;6627;50.920;12.050;2024-01-30T07:44:03;99379.47;;;12.51;38.09
13124;BME280;6627;50.920;12.050;2024-01-30T07:46:30;99374.28;;;12.68;37.52
13124;BME280;6627;50.920;12.050;2024-01-30T07:48:58;99257.69;;;11.93;38.19
13124;BME280;6627;50.920;12.050;2024-01-30T07:51:26;99310.56;;;11.95;39.06
13124;BME280;6627;50.920;12.050;2024-01-30T07:53:54;99225.09;;;11.60;38.82
13124;BME280;6627;50.920;12.050;2024-01-30T07:56:25;99370.59;;;12.45;37.97
13124;BME280;6627;50.920;12.050;2024-01-30T07:58:53;99213.63;;;11.63;38.08
13124;BME280;6627;50.920;12.050;2024-01-30T08:01:23;99194.28;;;11.51;38.29
13124;BME280;6627;50.920;12.050;2024-01-30T08:03:50;99416.78;;;12.78;37.57
13124;BME280;6627;50.920;12.050;2024-01-30T08:06:17;99324.50;;;12.07;38.67
13124;BME280;6627;50.920;12.050;2024-01-30T08:08:56;99371.31;;;12.51;37.85
13124;BME280;6627;50.920;12.050;2024-01-30T08:11:26;99261.44;;;11.97;37.86
13124;BME280;6627;50.920;12.050;2024-01-30T08:13:55;99379.13;;;12.38;38.26
13124;BME280;6627;50.920;12.050;2024-01-30T08:16:23;99372.16;;;12.79;37.07
13124;BME280;6627;50.920;12.050;2024-01-30T08:18:59;99311.81;;;12.35;37.72
13124;BME280;6627;50.920;12.050;2024-01-30T08:21:28;99324.09;;;12.47;37.57
13124;BME280;6627;50.920;12.050;2024-01-30T08:23:56;99355.16;;;12.73;37.07
13124;BME280;6627;50.920;12.050;2024-01-30T08:26:23;99299.94;;;12.31;37.60
13124;BME280;6627;50.920;12.050;2024-01-30T08:28:57;99349.22;;;12.38;38.01
13124;BME280;6627;50.920;12.050;2024-01-30T08:31:24;99363.59;;;12.58;37.64
13124;BME280;6627;50.920;12.050;2024-01-30T08:34:03;99379.16;;;12.99;36.81
13124;BME280;6627;50.920;12.050;2024-01-30T08:36:30;99467.88;;;13.69;36.17
13124;BME280;6627;50.920;12.050;2024-01-30T08:39:05;99450.94;;;13.58;36.28
13124;BME280;6627;50.920;12.050;2024-01-30T08:41:52;99340.19;;;12.90;36.83
13124;BME280;6627;50.920;12.050;2024-01-30T08:44:20;99442.88;;;13.53;36.52
13124;BME280;6627;50.920;12.050;2024-01-30T08:46:48;99352.28;;;13.11;36.44
13124;BME280;6627;50.920;12.050;2024-01-30T08:49:16;99382.28;;;13.20;36.93
13124;BME280;6627;50.920;12.050;2024-01-30T08:51:53;99308.66;;;13.02;36.23
13124;BME280;6627;50.920;12.050;2024-01-30T08:54:20;99400.75;;;13.36;36.73
13124;BME280;6627;50.920;12.050;2024-01-30T08:56:47;99489.22;;;14.03;36.16
13124;BME280;6627;50.920;12.050;2024-01-30T08:59:26;99544.84;;;14.52;35.68
13124;BME280;6627;50.920;12.050;2024-01-30T09:01:57;99480.81;;;14.27;35.60
13124;BME280;6627;50.920;12.050;2024-01-30T09:04:26;99415.59;;;13.94;35.64
13124;BME280;6627;50.920;12.050;2024-01-30T09:06:53;99368.84;;;13.78;35.58
13124;BME280;6627;50.920;12.050;2024-01-30T09:09:21;99399.47;;;13.84;35.87
13124;BME280;6627;50.920;12.050;2024-01-30T09:11:50;99397.00;;;14.10;35.23
13124;BME280;6627;50.920;12.050;2024-01-30T09:14:24;99369.88;;;13.69;36.34
13124;BME280;6627;50.920;12.050;2024-01-30T09:16:56;99499.63;;;14.51;35.64
13124;BME280;6627;50.920;12.050;2024-01-30T09:19:26;99593.38;;;15.45;34.66
13124;BME280;6627;50.920;12.050;2024-01-30T09:21:54;99528.41;;;15.24;34.54
13124;BME280;6627;50.920;12.050;2024-01-30T09:24:25;99489.38;;;14.93;34.61
13124;BME280;6627;50.920;12.050;2024-01-30T09:26:52;99443.03;;;14.70;34.52
13124;BME280;6627;50.920;12.050;2024-01-30T09:29:22;99479.44;;;14.97;34.75
13124;BME280;6627;50.920;12.050;2024-01-30T09:31:58;99334.88;;;13.98;35.46
13124;BME280;6627;50.920;12.050;2024-01-30T09:34:30;99467.03;;;14.68;35.67
13124;BME280;6627;50.920;12.050;2024-01-30T09:37:00;99475.34;;;14.85;35.19
13124;BME280;6627;50.920;12.050;2024-01-30T09:39:28;99451.66;;;14.95;34.87
13124;BME280;6627;50.920;12.050;2024-01-30T09:42:11;99502.41;;;15.04;35.24
13124;BME280;6627;50.920;12.050;2024-01-30T09:44:50;99524.41;;;15.30;35.15
13124;BME280;6627;50.920;12.050;2024-01-30T09:47:20;99539.56;;;15.36;35.00
13124;BME280;6627;50.920;12.050;2024-01-30T09:49:52;99463.03;;;15.19;34.67
13124;BME280;6627;50.920;12.050;2024-01-30T09:52:20;99558.84;;;15.71;34.21
13124;BME280;6627;50.920;12.050;2024-01-30T09:54:51;99576.97;;;16.07;33.80
13124;BME280;6627;50.920;12.050;2024-01-30T09:57:20;99492.34;;;15.76;33.63
13124;BME280;6627;50.920;12.050;2024-01-30T09:59:48;99444.56;;;15.16;34.77
13124;BME280;6627;50.920;12.050;2024-01-30T10:02:22;99461.53;;;15.13;35.05
13124;BME280;6627;50.920;12.050;2024-01-30T10:04:54;99593.66;;;15.97;34.85
13124;BME280;6627;50.920;12.050;2024-01-30T10:07:23;99643.41;;;16.56;34.15
13124;BME280;6627;50.920;12.050;2024-01-30T10:09:52;99546.84;;;15.81;34.93
13124;BME280;6627;50.920;12.050;2024-01-30T10:12:20;99571.19;;;16.00;34.56
13124;BME280;6627;50.920;12.050;2024-01-30T10:15:03;99592.78;;;16.19;34.31
13124;BME280;6627;50.920;12.050;2024-01-30T10:17:45;99665.69;;;16.98;33.75
13124;BME280;6627;50.920;12.050;2024-01-30T10:20:13;99551.47;;;16.11;34.65
13124;BME280;6627;50.920;12.050;2024-01-30T10:22:40;99594.59;;;16.40;34.19
13124;BME280;6627;50.920;12.050;2024-01-30T10:25:11;99551.38;;;15.85;35.36
13124;BME280;6627;50.920;12.050;2024-01-30T10:27:40;99544.69;;;16.09;34.52
13124;BME280;6627;50.920;12.050;2024-01-30T10:30:09;99640.19;;;16.71;34.24
13124;BME280;6627;50.920;12.050;2024-01-30T10:32:39;99547.41;;;16.09;34.81
13124;BME280;6627;50.920;12.050;2024-01-30T10:35:08;99671.81;;;16.95;34.66
13124;BME280;6627;50.920;12.050;2024-01-30T10:37:35;99651.69;;;17.25;33.92
13124;BME280;6627;50.920;12.050;2024-01-30T10:40:05;99569.19;;;16.40;34.65
13124;BME280;6627;50.920;12.050;2024-01-30T10:42:36;99581.59;;;16.55;34.59
13124;BME280;6627;50.920;12.050;2024-01-30T10:45:09;99676.50;;;17.20;34.40
13124;BME280;6627;50.920;12.050;2024-01-30T10:47:50;99598.53;;;16.65;34.90
13124;BME280;6627;50.920;12.050;2024-01-30T10:50:19;99573.22;;;16.60;34.66
13124;BME280;6627;50.920;12.050;2024-01-30T10:52:47;99472.75;;;15.74;35.65
13124;BME280;6627;50.920;12.050;2024-01-30T10:55:17;99680.69;;;17.26;34.50
13124;BME280;6627;50.920;12.050;2024-01-30T10:57:57;99730.78;;;17.70;34.47
13124;BME280;6627;50.920;12.050;2024-01-30T11:00:29;99568.78;;;16.99;34.22
13124;BME280;6627;50.920;12.050;2024-01-30T11:03:16;99689.03;;;17.64;34.22
13124;BME280;6627;50.920;12.050;2024-01-30T11:05:51;99697.91;;;17.79;34.20
13124;BME280;6627;50.920;12.050;2024-01-30T11:08:24;99738.31;;;18.17;33.85
13124;BME280;6627;50.920;12.050;2024-01-30T11:10:56;99768.63;;;18.67;33.22
13124;BME280;6627;50.920;12.050;2024-01-30T11:13:28;99708.50;;;18.15;33.71
13124;BME280;6627;50.920;12.050;2024-01-30T11:16:05;99609.16;;;17.36;34.26
13124;BME280;6627;50.920;12.050;2024-01-30T11:18:39;99719.78;;;18.05;34.18
13124;BME280;6627;50.920;12.050;2024-01-30T11:21:08;99578.13;;;17.15;34.60
13124;BME280;6627;50.920;12.050;2024-01-30T11:23:35;99634.28;;;17.38;34.57
13124;BME280;6627;50.920;12.050;2024-01-30T11:26:04;99744.22;;;18.27;34.12
13124;BME280;6627;50.920;12.050;2024-01-30T11:28:33;99617.81;;;17.56;34.51
13124;BME280;6627;50.920;12.050;2024-01-30T11:31:19;99688.06;;;17.86;34.66
13124;BME280;6627;50.920;12.050;2024-01-30T11:33:56;99644.09;;;17.57;34.79
13124;BME280;6627;50.920;12.050;2024-01-30T11:36:27;99603.69;;;17.45;34.67
13124;BME280;6627;50.920;12.050;2024-01-30T11:38:54;99743.00;;;18.16;35.41
13124;BME280;6627;50.920;12.050;2024-01-30T11:41:22;99643.88;;;17.88;34.47
13124;BME280;6627;50.920;12.050;2024-01-30T11:44:03;99523.84;;;17.08;35.13
13124;BME280;6627;50.920;12.050;2024-01-30T11:46:33;99646.03;;;17.48;36.08
13124;BME280;6627;50.920;12.050;2024-01-30T11:49:01;99553.16;;;16.90;36.20
13124;BME280;6627;50.920;12.050;2024-01-30T11:51:32;99510.31;;;16.69;36.29
13124;BME280;6627;50.920;12.050;2024-01-30T11:53:59;99647.16;;;17.55;36.12
13124;BME280;6627;50.920;12.050;2024-01-30T11:56:38;99615.09;;;17.56;35.62
13124;BME280;6627;50.920;12.050;2024-01-30T11:59:14;99582.09;;;17.35;35.82
13124;BME280;6627;50.920;12.050;2024-01-30T12:01:52;99676.22;;;18.12;35.23
13124;BME280;6627;50.920;12.050;2024-01-30T12:04:31;99603.00;;;17.48;36.08
13124;BME280;6627;50.920;12.050;2024-01-30T12:07:03;99637.78;;;17.65;36.05
13124;BME280;6627;50.920;12.050;2024-01-30T12:09:39;99676.22;;;18.12;35.11
13124;BME280;6627;50.920;12.050;2024-01-30T12:12:09;99778.97;;;18.70;35.47
13124;BME280;6627;50.920;12.050;2024-01-30T12:14:39;99715.91;;;18.53;35.18
13124;BME280;6627;50.920;12.050;2024-01-30T12:17:07;99716.38;;;18.55;35.14
13124;BME280;6627;50.920;12.050;2024-01-30T12:19:35;99733.84;;;18.41;35.77
13124;BME280;6627;50.920;12.050;2024-01-30T12:22:04;99708.38;;;18.79;34.60
13124;BME280;6627;50.920;12.050;2024-01-30T12:24:31;99608.00;;;17.63;36.35
13124;BME280;6627;50.920;12.050;2024-01-30T12:27:15;99723.50;;;18.56;35.69
13124;BME280;6627;50.920;12.050;2024-01-30T12:29:46;99819.88;;;19.52;34.88
13124;BME280;6627;50.920;12.050;2024-01-30T12:32:17;99719.88;;;19.02;34.86
13124;BME280;6627;50.920;12.050;2024-01-30T12:34:46;99758.06;;;19.16;35.05
13124;BME280;6627;50.920;12.050;2024-01-30T12:37:20;99670.00;;;18.71;35.30
13124;BME280;6627;50.920;12.050;2024-01-30T12:40:01;99701.53;;;18.56;36.01
13124;BME280;6627;50.920;12.050;2024-01-30T12:42:47;99807.19;;;19.68;35.18
13124;BME280;6627;50.920;12.050;2024-01-30T12:45:16;99819.28;;;20.09;34.38
13124;BME280;6627;50.920;12.050;2024-01-30T12:47:52;99728.53;;;19.34;34.83
13124;BME280;6627;50.920;12.050;2024-01-30T12:50:22;99838.84;;;20.28;34.30
13124;BME280;6627;50.920;12.050;2024-01-30T12:52:52;99821.16;;;20.17;34.63
13124;BME280;6627;50.920;12.050;2024-01-30T12:55:23;99755.94;;;19.84;34.60
13124;BME280;6627;50.920;12.050;2024-01-30T12:57:55;99717.19;;;19.56;34.62
13124;BME280;6627;50.920;12.050;2024-01-30T13:00:23;99710.25;;;19.17;35.66
13124;BME280;6627;50.920;12.050;2024-01-30T13:02:52;99755.56;;;19.53;35.39
13124;BME280;6627;50.920;12.050;2024-01-30T13:05:28;99736.91;;;19.79;34.44
13124;BME280;6627;50.920;12.050;2024-01-30T13:08:00;99713.31;;;19.36;35.31
13124;BME280;6627;50.920;12.050;2024-01-30T13:10:39;99711.72;;;19.35;35.35
13124;BME280;6627;50.920;12.050;2024-01-30T13:13:07;99732.09;;;19.76;35.03
13124;BME280;6627;50.920;12.050;2024-01-30T13:15:37;99704.75;;;19.17;35.73
13124;BME280;6627;50.920;12.050;2024-01-30T13:18:16;99710.66;;;19.28;35.68
13124;BME280;6627;50.920;12.050;2024-01-30T13:20:44;99832.88;;;20.26;35.38
13124;BME280;6627;50.920;12.050;2024-01-30T13:23:15;99723.09;;;19.88;34.83
13124;BME280;6627;50.920;12.050;2024-01-30T13:25:54;99675.78;;;18.99;36.33
13124;BME280;6627;50.920;12.050;2024-01-30T13:28:31;99644.06;;;19.10;35.66
13124;BME280;6627;50.920;12.050;2024-01-30T13:31:01;99723.72;;;19.31;36.16
13124;BME280;6627;50.920;12.050;2024-01-30T13:33:30;99742.94;;;19.52;35.70